sensor_id;sensor_type;location;lat;lon;timestamp;P1;durP1;ratioP1;P2;durP2;ratioP2
56455;SDS011;42354;53.218;6.564;2022-09-20T00:01:21;11.93;;;1.80;;
56455;SDS011;42354;53.218;6.564;2022-09-20T00:03:53;11.93;;;1.60;;
56455;SDS011;42354;53.218;6.564;2022-09-20T00:06:24;16.75;;;2.03;;
56455;SDS011;42354;53.218;6.564;2022-09-20T00:08:52;15.18;;;4.10;;
56455;SDS011;42354;53.218;6.564;2022-09-20T00:11:19;14.93;;;1.80;;
56455;SDS011;42354;53.218;6.564;2022-09-20T00:13:50;8.85;;;1.40;;
56455;SDS011;42354;53.218;6.564;2022-09-20T00:16:19;8.93;;;1.60;;
56455;SDS011;42354;53.218;6.564;2022-09-20T00:18:48;7.38;;;1.50;;
56455;SDS011;42354;53.218;6.564;2022-09-20T00:21:18;8.60;;;1.30;;
56455;SDS011;42354;53.218;6.564;2022-09-20T00:23:46;11.70;;;1.60;;
56455;SDS011;42354;53.218;6.564;2022-09-20T00:26:12;13.50;;;1.83;;
56455;SDS011;42354;53.218;6.564;2022-09-20T00:28:38;8.70;;;1.40;;
56455;SDS011;42354;53.218;6.564;2022-09-20T00:31:05;11.02;;;1.40;;
56455;SDS011;42354;53.218;6.564;2022-09-20T00:33:32;7.32;;;1.30;;
56455;SDS011;42354;53.218;6.564;2022-09-20T00:36:17;9.20;;;1.40;;
56455;SDS011;42354;53.218;6.564;2022-09-20T00:38:43;10.95;;;1.55;;
56455;SDS011;42354;53.218;6.564;2022-09-20T00:41:08;10.85;;;1.33;;
56455;SDS011;42354;53.218;6.564;2022-09-20T00:43:41;13.25;;;1.73;;
56455;SDS011;42354;53.218;6.564;2022-09-20T00:49:19;14.38;;;2.13;;
56455;SDS011;42354;53.218;6.564;2022-09-20T00:51:51;8.85;;;1.20;;
56455;SDS011;42354;53.218;6.564;2022-09-20T00:54:21;11.90;;;1.20;;
56455;SDS011;42354;53.218;6.564;2022-09-20T00:56:49;6.63;;;1.20;;
56455;SDS011;42354;53.218;6.564;2022-09-20T00:59:17;10.13;;;1.42;;
56455;SDS011;42354;53.218;6.564;2022-09-20T01:01:47;9.43;;;1.67;;
56455;SDS011;42354;53.218;6.564;2022-09-20T01:04:16;5.88;;;1.60;;
56455;SDS011;42354;53.218;6.564;2022-09-20T01:06:46;14.35;;;1.75;;
56455;SDS011;42354;53.218;6.564;2022-09-20T01:09:16;11.95;;;2.00;;
56455;SDS011;42354;53.218;6.564;2022-09-20T01:11:41;11.13;;;1.67;;
56455;SDS011;42354;53.218;6.564;2022-09-20T01:14:07;11.38;;;1.67;;
56455;SDS011;42354;53.218;6.564;2022-09-20T01:16:33;18.40;;;1.92;;
56455;SDS011;42354;53.218;6.564;2022-09-20T01:19:01;9.77;;;1.63;;
56455;SDS011;42354;53.218;6.564;2022-09-20T01:21:37;12.38;;;2.28;;
56455;SDS011;42354;53.218;6.564;2022-09-20T01:24:26;17.88;;;2.28;;
56455;SDS011;42354;53.218;6.564;2022-09-20T01:32:12;9.10;;;1.52;;
56455;SDS011;42354;53.218;6.564;2022-09-20T01:34:44;7.80;;;1.40;;
56455;SDS011;42354;53.218;6.564;2022-09-20T01:42:25;11.23;;;1.70;;
56455;SDS011;42354;53.218;6.564;2022-09-20T01:47:34;15.85;;;2.05;;
56455;SDS011;42354;53.218;6.564;2022-09-20T01:50:19;6.88;;;1.67;;
56455;SDS011;42354;53.218;6.564;2022-09-20T02:07:53;18.58;;;2.03;;
56455;SDS011;42354;53.218;6.564;2022-09-20T02:13:08;10.43;;;1.85;;
56455;SDS011;42354;53.218;6.564;2022-09-20T02:23:26;13.07;;;2.75;;
56455;SDS011;42354;53.218;6.564;2022-09-20T02:32:11;9.40;;;2.35;;
56455;SDS011;42354;53.218;6.564;2022-09-20T02:43:50;12.00;;;2.33;;
56455;SDS011;42354;53.218;6.564;2022-09-20T02:51:56;11.63;;;1.90;;
56455;SDS011;42354;53.218;6.564;2022-09-20T02:54:52;9.90;;;1.80;;
56455;SDS011;42354;53.218;6.564;2022-09-20T03:00:21;9.80;;;1.90;;
56455;SDS011;42354;53.218;6.564;2022-09-20T03:03:10;13.55;;;2.00;;
56455;SDS011;42354;53.218;6.564;2022-09-20T03:09:06;8.57;;;1.63;;
56455;SDS011;42354;53.218;6.564;2022-09-20T03:18:10;8.02;;;1.25;;
56455;SDS011;42354;53.218;6.564;2022-09-20T03:40:52;12.23;;;1.73;;
56455;SDS011;42354;53.218;6.564;2022-09-20T03:57:27;10.13;;;1.80;;
56455;SDS011;42354;53.218;6.564;2022-09-20T04:00:07;14.18;;;1.60;;
56455;SDS011;42354;53.218;6.564;2022-09-20T04:08:05;11.25;;;1.42;;
56455;SDS011;42354;53.218;6.564;2022-09-20T04:18:54;7.60;;;1.50;;
56455;SDS011;42354;53.218;6.564;2022-09-20T04:21:42;5.97;;;1.63;;
56455;SDS011;42354;53.218;6.564;2022-09-20T04:24:18;11.95;;;2.17;;
56455;SDS011;42354;53.218;6.564;2022-09-20T04:26:50;10.57;;;1.73;;
56455;SDS011;42354;53.218;6.564;2022-09-20T04:29:28;5.53;;;1.52;;
56455;SDS011;42354;53.218;6.564;2022-09-20T04:32:16;8.20;;;1.40;;
56455;SDS011;42354;53.218;6.564;2022-09-20T04:34:46;7.22;;;1.38;;
56455;SDS011;42354;53.218;6.564;2022-09-20T04:37:37;12.38;;;2.22;;
56455;SDS011;42354;53.218;6.564;2022-09-20T04:40:22;8.52;;;1.70;;
56455;SDS011;42354;53.218;6.564;2022-09-20T04:48:35;5.38;;;1.63;;
56455;SDS011;42354;53.218;6.564;2022-09-20T04:53:53;9.52;;;2.22;;
56455;SDS011;42354;53.218;6.564;2022-09-20T04:59:06;4.70;;;1.70;;
56455;SDS011;42354;53.218;6.564;2022-09-20T05:10:10;8.60;;;1.60;;
56455;SDS011;42354;53.218;6.564;2022-09-20T05:15:37;10.10;;;1.50;;
56455;SDS011;42354;53.218;6.564;2022-09-20T05:28:30;7.55;;;1.83;;
56455;SDS011;42354;53.218;6.564;2022-09-20T05:31:43;12.63;;;2.33;;
56455;SDS011;42354;53.218;6.564;2022-09-20T05:33:59;8.18;;;1.83;;
56455;SDS011;42354;53.218;6.564;2022-09-20T05:42:13;9.20;;;1.80;;
56455;SDS011;42354;53.218;6.564;2022-09-20T05:45:05;5.85;;;1.70;;
56455;SDS011;42354;53.218;6.564;2022-09-20T05:47:48;7.63;;;2.15;;
56455;SDS011;42354;53.218;6.564;2022-09-20T05:50:28;9.10;;;2.28;;
56455;SDS011;42354;53.218;6.564;2022-09-20T06:03:52;8.15;;;1.92;;
56455;SDS011;42354;53.218;6.564;2022-09-20T06:09:29;7.57;;;1.65;;
56455;SDS011;42354;53.218;6.564;2022-09-20T06:12:18;6.88;;;1.55;;
56455;SDS011;42354;53.218;6.564;2022-09-20T06:18:11;11.33;;;1.30;;
56455;SDS011;42354;53.218;6.564;2022-09-20T06:29:01;5.32;;;2.03;;
56455;SDS011;42354;53.218;6.564;2022-09-20T06:31:31;10.13;;;1.40;;
56455;SDS011;42354;53.218;6.564;2022-09-20T06:34:03;4.63;;;1.13;;
56455;SDS011;42354;53.218;6.564;2022-09-20T06:36:32;9.95;;;1.45;;
56455;SDS011;42354;53.218;6.564;2022-09-20T06:42:24;8.43;;;1.35;;
56455;SDS011;42354;53.218;6.564;2022-09-20T06:44:51;8.63;;;0.93;;
56455;SDS011;42354;53.218;6.564;2022-09-20T06:47:17;7.55;;;0.82;;
56455;SDS011;42354;53.218;6.564;2022-09-20T06:49:42;7.03;;;1.10;;
56455;SDS011;42354;53.218;6.564;2022-09-20T06:52:14;6.25;;;1.40;;
56455;SDS011;42354;53.218;6.564;2022-09-20T06:54:48;9.13;;;1.10;;
56455;SDS011;42354;53.218;6.564;2022-09-20T06:57:18;9.38;;;1.40;;
56455;SDS011;42354;53.218;6.564;2022-09-20T06:59:54;6.60;;;0.90;;
56455;SDS011;42354;53.218;6.564;2022-09-20T07:02:19;6.90;;;0.93;;
56455;SDS011;42354;53.218;6.564;2022-09-20T07:04:44;5.90;;;1.25;;
56455;SDS011;42354;53.218;6.564;2022-09-20T07:07:11;4.10;;;1.02;;
56455;SDS011;42354;53.218;6.564;2022-09-20T07:09:40;8.85;;;1.23;;
56455;SDS011;42354;53.218;6.564;2022-09-20T07:12:06;6.05;;;1.10;;
56455;SDS011;42354;53.218;6.564;2022-09-20T07:14:36;4.88;;;1.50;;
56455;SDS011;42354;53.218;6.564;2022-09-20T07:17:01;8.02;;;0.90;;
56455;SDS011;42354;53.218;6.564;2022-09-20T07:19:27;1.95;;;1.05;;
56455;SDS011;42354;53.218;6.564;2022-09-20T07:21:52;4.00;;;0.90;;
56455;SDS011;42354;53.218;6.564;2022-09-20T07:24:18;6.85;;;1.08;;
56455;SDS011;42354;53.218;6.564;2022-09-20T07:27:02;9.65;;;1.05;;
56455;SDS011;42354;53.218;6.564;2022-09-20T07:29:29;4.53;;;1.00;;
56455;SDS011;42354;53.218;6.564;2022-09-20T07:31:55;4.80;;;0.93;;
56455;SDS011;42354;53.218;6.564;2022-09-20T07:34:21;9.73;;;1.38;;
56455;SDS011;42354;53.218;6.564;2022-09-20T07:36:46;6.32;;;1.30;;
56455;SDS011;42354;53.218;6.564;2022-09-20T07:39:12;8.38;;;1.45;;
56455;SDS011;42354;53.218;6.564;2022-09-20T07:41:38;9.35;;;1.48;;
56455;SDS011;42354;53.218;6.564;2022-09-20T07:44:03;9.07;;;1.63;;
56455;SDS011;42354;53.218;6.564;2022-09-20T07:46:48;5.68;;;1.10;;
56455;SDS011;42354;53.218;6.564;2022-09-20T07:49:18;5.68;;;1.00;;
56455;SDS011;42354;53.218;6.564;2022-09-20T07:51:44;5.65;;;1.10;;
56455;SDS011;42354;53.218;6.564;2022-09-20T07:54:09;7.97;;;1.55;;
56455;SDS011;42354;53.218;6.564;2022-09-20T07:56:35;2.88;;;0.90;;
56455;SDS011;42354;53.218;6.564;2022-09-20T07:59:00;9.43;;;1.10;;
56455;SDS011;42354;53.218;6.564;2022-09-20T08:01:25;8.45;;;0.82;;
56455;SDS011;42354;53.218;6.564;2022-09-20T08:03:51;4.13;;;0.80;;
56455;SDS011;42354;53.218;6.564;2022-09-20T08:06:16;6.15;;;0.90;;
56455;SDS011;42354;53.218;6.564;2022-09-20T08:08:43;2.53;;;0.70;;
56455;SDS011;42354;53.218;6.564;2022-09-20T08:11:12;5.38;;;1.08;;
56455;SDS011;42354;53.218;6.564;2022-09-20T08:13:49;3.67;;;0.80;;
56455;SDS011;42354;53.218;6.564;2022-09-20T08:16:18;4.15;;;1.00;;
56455;SDS011;42354;53.218;6.564;2022-09-20T08:18:45;3.65;;;0.68;;
56455;SDS011;42354;53.218;6.564;2022-09-20T08:21:12;7.80;;;1.05;;
56455;SDS011;42354;53.218;6.564;2022-09-20T08:23:38;8.15;;;1.00;;
56455;SDS011;42354;53.218;6.564;2022-09-20T08:26:06;15.23;;;1.00;;
56455;SDS011;42354;53.218;6.564;2022-09-20T08:28:37;3.17;;;0.60;;
56455;SDS011;42354;53.218;6.564;2022-09-20T08:31:04;5.38;;;0.88;;
56455;SDS011;42354;53.218;6.564;2022-09-20T08:33:35;4.00;;;0.70;;
56455;SDS011;42354;53.218;6.564;2022-09-20T08:36:02;6.22;;;0.60;;
56455;SDS011;42354;53.218;6.564;2022-09-20T08:38:30;6.50;;;0.70;;
56455;SDS011;42354;53.218;6.564;2022-09-20T08:40:58;5.90;;;1.02;;
56455;SDS011;42354;53.218;6.564;2022-09-20T08:43:28;6.75;;;0.75;;
56455;SDS011;42354;53.218;6.564;2022-09-20T08:45:59;4.35;;;0.80;;
56455;SDS011;42354;53.218;6.564;2022-09-20T08:48:29;3.65;;;0.85;;
56455;SDS011;42354;53.218;6.564;2022-09-20T08:50:58;5.35;;;0.80;;
56455;SDS011;42354;53.218;6.564;2022-09-20T08:53:25;2.58;;;0.68;;
56455;SDS011;42354;53.218;6.564;2022-09-20T08:55:53;6.20;;;0.75;;
56455;SDS011;42354;53.218;6.564;2022-09-20T08:58:21;4.25;;;0.77;;
56455;SDS011;42354;53.218;6.564;2022-09-20T09:00:47;1.08;;;0.40;;
56455;SDS011;42354;53.218;6.564;2022-09-20T09:03:13;4.00;;;0.57;;
56455;SDS011;42354;53.218;6.564;2022-09-20T09:05:44;2.60;;;0.40;;
56455;SDS011;42354;53.218;6.564;2022-09-20T09:08:12;3.38;;;0.47;;
56455;SDS011;42354;53.218;6.564;2022-09-20T09:10:42;3.42;;;0.43;;
56455;SDS011;42354;53.218;6.564;2022-09-20T09:13:15;1.90;;;0.40;;
56455;SDS011;42354;53.218;6.564;2022-09-20T09:15:45;2.88;;;0.50;;
56455;SDS011;42354;53.218;6.564;2022-09-20T09:18:17;3.13;;;0.50;;
56455;SDS011;42354;53.218;6.564;2022-09-20T09:20:42;4.05;;;0.50;;
56455;SDS011;42354;53.218;6.564;2022-09-20T09:23:18;2.38;;;0.40;;
56455;SDS011;42354;53.218;6.564;2022-09-20T09:25:49;2.58;;;0.50;;
56455;SDS011;42354;53.218;6.564;2022-09-20T09:28:16;1.98;;;0.40;;
56455;SDS011;42354;53.218;6.564;2022-09-20T09:30:47;2.28;;;0.50;;
56455;SDS011;42354;53.218;6.564;2022-09-20T09:35:38;3.73;;;1.17;;
56455;SDS011;42354;53.218;6.564;2022-09-20T09:38:04;6.05;;;0.50;;
56455;SDS011;42354;53.218;6.564;2022-09-20T09:40:39;2.40;;;0.47;;
56455;SDS011;42354;53.218;6.564;2022-09-20T09:43:18;3.20;;;0.50;;
56455;SDS011;42354;53.218;6.564;2022-09-20T09:45:47;1.35;;;0.50;;
56455;SDS011;42354;53.218;6.564;2022-09-20T09:48:31;3.47;;;0.65;;
56455;SDS011;42354;53.218;6.564;2022-09-20T09:53:36;6.70;;;0.80;;
56455;SDS011;42354;53.218;6.564;2022-09-20T10:13:31;2.75;;;0.60;;
56455;SDS011;42354;53.218;6.564;2022-09-20T10:22:14;4.38;;;0.80;;
56455;SDS011;42354;53.218;6.564;2022-09-20T10:25:00;5.28;;;0.50;;
56455;SDS011;42354;53.218;6.564;2022-09-20T10:27:37;4.43;;;0.60;;
56455;SDS011;42354;53.218;6.564;2022-09-20T10:34:11;5.55;;;1.10;;
56455;SDS011;42354;53.218;6.564;2022-09-20T10:36:55;4.63;;;0.77;;
56455;SDS011;42354;53.218;6.564;2022-09-20T10:39:30;6.22;;;0.80;;
56455;SDS011;42354;53.218;6.564;2022-09-20T10:42:01;2.90;;;0.77;;
56455;SDS011;42354;53.218;6.564;2022-09-20T10:44:56;3.78;;;0.95;;
56455;SDS011;42354;53.218;6.564;2022-09-20T10:47:56;9.30;;;0.90;;
56455;SDS011;42354;53.218;6.564;2022-09-20T11:02:19;4.65;;;0.90;;
56455;SDS011;42354;53.218;6.564;2022-09-20T11:05:12;7.45;;;0.93;;
56455;SDS011;42354;53.218;6.564;2022-09-20T11:07:57;12.23;;;1.10;;
56455;SDS011;42354;53.218;6.564;2022-09-20T11:10:32;6.03;;;0.95;;
56455;SDS011;42354;53.218;6.564;2022-09-20T11:13:09;9.40;;;1.17;;
56455;SDS011;42354;53.218;6.564;2022-09-20T11:16:04;6.40;;;0.70;;
56455;SDS011;42354;53.218;6.564;2022-09-20T11:21:42;5.85;;;0.82;;
56455;SDS011;42354;53.218;6.564;2022-09-20T11:24:26;6.05;;;0.90;;
56455;SDS011;42354;53.218;6.564;2022-09-20T11:27:04;6.95;;;0.80;;
56455;SDS011;42354;53.218;6.564;2022-09-20T11:32:24;4.65;;;0.85;;
56455;SDS011;42354;53.218;6.564;2022-09-20T11:35:02;5.53;;;0.70;;
56455;SDS011;42354;53.218;6.564;2022-09-20T11:37:42;4.00;;;0.70;;
56455;SDS011;42354;53.218;6.564;2022-09-20T11:42:46;8.35;;;0.88;;
56455;SDS011;42354;53.218;6.564;2022-09-20T11:45:13;10.02;;;0.95;;
56455;SDS011;42354;53.218;6.564;2022-09-20T11:47:41;4.03;;;0.88;;
56455;SDS011;42354;53.218;6.564;2022-09-20T11:58:23;6.40;;;0.73;;
56455;SDS011;42354;53.218;6.564;2022-09-20T12:00:50;4.25;;;0.80;;
56455;SDS011;42354;53.218;6.564;2022-09-20T12:03:24;5.45;;;1.17;;
56455;SDS011;42354;53.218;6.564;2022-09-20T12:06:07;11.23;;;0.90;;
56455;SDS011;42354;53.218;6.564;2022-09-20T12:08:45;5.72;;;0.50;;
56455;SDS011;42354;53.218;6.564;2022-09-20T12:11:14;3.38;;;0.70;;
56455;SDS011;42354;53.218;6.564;2022-09-20T12:13:41;6.25;;;0.95;;
56455;SDS011;42354;53.218;6.564;2022-09-20T12:19:13;1.67;;;0.60;;
56455;SDS011;42354;53.218;6.564;2022-09-20T12:24:23;6.05;;;0.90;;
56455;SDS011;42354;53.218;6.564;2022-09-20T12:26:50;11.18;;;0.90;;
56455;SDS011;42354;53.218;6.564;2022-09-20T12:31:48;4.95;;;0.65;;
56455;SDS011;42354;53.218;6.564;2022-09-20T12:39:16;8.10;;;0.63;;
56455;SDS011;42354;53.218;6.564;2022-09-20T12:46:50;6.57;;;0.70;;
56455;SDS011;42354;53.218;6.564;2022-09-20T12:49:29;2.47;;;0.52;;
56455;SDS011;42354;53.218;6.564;2022-09-20T12:55:25;8.75;;;1.20;;
56455;SDS011;42354;53.218;6.564;2022-09-20T12:57:55;5.80;;;0.75;;
56455;SDS011;42354;53.218;6.564;2022-09-20T13:00:36;7.72;;;0.82;;
56455;SDS011;42354;53.218;6.564;2022-09-20T13:03:26;5.03;;;0.70;;
56455;SDS011;42354;53.218;6.564;2022-09-20T13:08:30;8.73;;;1.00;;
56455;SDS011;42354;53.218;6.564;2022-09-20T13:16:24;6.03;;;0.98;;
56455;SDS011;42354;53.218;6.564;2022-09-20T13:19:06;4.97;;;0.68;;
56455;SDS011;42354;53.218;6.564;2022-09-20T13:21:41;4.75;;;0.85;;
56455;SDS011;42354;53.218;6.564;2022-09-20T13:24:17;5.60;;;0.93;;
56455;SDS011;42354;53.218;6.564;2022-09-20T13:26:45;4.75;;;0.90;;
56455;SDS011;42354;53.218;6.564;2022-09-20T13:29:22;6.32;;;0.82;;
56455;SDS011;42354;53.218;6.564;2022-09-20T13:32:24;5.50;;;1.00;;
56455;SDS011;42354;53.218;6.564;2022-09-20T13:40:16;6.55;;;1.05;;
56455;SDS011;42354;53.218;6.564;2022-09-20T13:42:43;8.10;;;1.45;;
56455;SDS011;42354;53.218;6.564;2022-09-20T13:45:11;4.50;;;0.68;;
56455;SDS011;42354;53.218;6.564;2022-09-20T13:47:40;9.30;;;1.02;;
56455;SDS011;42354;53.218;6.564;2022-09-20T13:52:45;8.23;;;1.00;;
56455;SDS011;42354;53.218;6.564;2022-09-20T13:58:05;3.10;;;0.73;;
56455;SDS011;42354;53.218;6.564;2022-09-20T14:00:36;5.93;;;0.88;;
56455;SDS011;42354;53.218;6.564;2022-09-20T14:03:11;4.15;;;0.70;;
56455;SDS011;42354;53.218;6.564;2022-09-20T14:05:44;6.32;;;0.80;;
56455;SDS011;42354;53.218;6.564;2022-09-20T14:08:18;4.03;;;0.70;;
56455;SDS011;42354;53.218;6.564;2022-09-20T14:10:47;5.25;;;0.50;;
56455;SDS011;42354;53.218;6.564;2022-09-20T14:13:26;4.43;;;0.77;;
56455;SDS011;42354;53.218;6.564;2022-09-20T14:15:55;2.95;;;0.60;;
56455;SDS011;42354;53.218;6.564;2022-09-20T14:18:22;3.33;;;0.60;;
56455;SDS011;42354;53.218;6.564;2022-09-20T14:20:49;3.13;;;1.02;;
56455;SDS011;42354;53.218;6.564;2022-09-20T14:23:24;6.13;;;0.90;;
56455;SDS011;42354;53.218;6.564;2022-09-20T14:28:42;5.70;;;0.70;;
56455;SDS011;42354;53.218;6.564;2022-09-20T14:31:12;4.05;;;0.70;;
56455;SDS011;42354;53.218;6.564;2022-09-20T14:33:44;9.32;;;1.52;;
56455;SDS011;42354;53.218;6.564;2022-09-20T14:36:14;3.63;;;1.13;;
56455;SDS011;42354;53.218;6.564;2022-09-20T14:38:44;5.03;;;1.23;;
56455;SDS011;42354;53.218;6.564;2022-09-20T14:41:12;8.63;;;0.90;;
56455;SDS011;42354;53.218;6.564;2022-09-20T14:43:47;6.93;;;0.90;;
56455;SDS011;42354;53.218;6.564;2022-09-20T14:46:18;6.97;;;0.88;;
56455;SDS011;42354;53.218;6.564;2022-09-20T14:48:52;5.93;;;1.05;;
56455;SDS011;42354;53.218;6.564;2022-09-20T14:51:19;8.82;;;1.00;;
56455;SDS011;42354;53.218;6.564;2022-09-20T14:53:47;10.73;;;1.25;;
56455;SDS011;42354;53.218;6.564;2022-09-20T14:56:37;4.50;;;0.88;;
56455;SDS011;42354;53.218;6.564;2022-09-20T15:01:38;3.15;;;0.70;;
56455;SDS011;42354;53.218;6.564;2022-09-20T15:04:12;6.18;;;0.68;;
56455;SDS011;42354;53.218;6.564;2022-09-20T15:06:45;9.80;;;0.90;;
56455;SDS011;42354;53.218;6.564;2022-09-20T15:09:11;9.45;;;1.33;;
56455;SDS011;42354;53.218;6.564;2022-09-20T15:11:37;7.15;;;1.77;;
56455;SDS011;42354;53.218;6.564;2022-09-20T15:14:05;7.97;;;1.10;;
56455;SDS011;42354;53.218;6.564;2022-09-20T15:16:32;6.18;;;1.00;;
56455;SDS011;42354;53.218;6.564;2022-09-20T15:18:57;4.32;;;0.70;;
56455;SDS011;42354;53.218;6.564;2022-09-20T15:21:23;5.65;;;1.60;;
56455;SDS011;42354;53.218;6.564;2022-09-20T15:23:49;2.28;;;0.50;;
56455;SDS011;42354;53.218;6.564;2022-09-20T15:26:14;3.40;;;0.40;;
56455;SDS011;42354;53.218;6.564;2022-09-20T15:28:40;6.03;;;0.85;;
56455;SDS011;42354;53.218;6.564;2022-09-20T15:31:06;2.88;;;0.50;;
56455;SDS011;42354;53.218;6.564;2022-09-20T15:33:32;3.38;;;0.70;;
56455;SDS011;42354;53.218;6.564;2022-09-20T15:35:57;8.40;;;1.17;;
56455;SDS011;42354;53.218;6.564;2022-09-20T15:38:24;6.45;;;0.90;;
56455;SDS011;42354;53.218;6.564;2022-09-20T15:40:51;6.72;;;1.30;;
56455;SDS011;42354;53.218;6.564;2022-09-20T15:43:20;4.43;;;0.82;;
56455;SDS011;42354;53.218;6.564;2022-09-20T15:45:51;3.80;;;1.10;;
56455;SDS011;42354;53.218;6.564;2022-09-20T15:48:19;7.55;;;1.00;;
56455;SDS011;42354;53.218;6.564;2022-09-20T15:51:02;3.08;;;0.63;;
56455;SDS011;42354;53.218;6.564;2022-09-20T15:53:32;6.47;;;1.02;;
56455;SDS011;42354;53.218;6.564;2022-09-20T15:56:24;5.13;;;0.77;;
56455;SDS011;42354;53.218;6.564;2022-09-20T15:58:50;3.90;;;0.65;;
56455;SDS011;42354;53.218;6.564;2022-09-20T16:01:31;6.07;;;1.52;;
56455;SDS011;42354;53.218;6.564;2022-09-20T16:04:07;5.28;;;0.80;;
56455;SDS011;42354;53.218;6.564;2022-09-20T16:06:34;5.97;;;0.70;;
56455;SDS011;42354;53.218;6.564;2022-09-20T16:09:01;7.32;;;1.10;;
56455;SDS011;42354;53.218;6.564;2022-09-20T16:11:27;5.57;;;1.27;;
56455;SDS011;42354;53.218;6.564;2022-09-20T16:13:56;10.60;;;2.10;;
56455;SDS011;42354;53.218;6.564;2022-09-20T16:16:23;4.97;;;0.93;;
56455;SDS011;42354;53.218;6.564;2022-09-20T16:18:52;5.65;;;0.77;;
56455;SDS011;42354;53.218;6.564;2022-09-20T16:21:37;7.25;;;1.00;;
56455;SDS011;42354;53.218;6.564;2022-09-20T16:24:03;7.18;;;1.00;;
56455;SDS011;42354;53.218;6.564;2022-09-20T16:26:30;4.72;;;0.80;;
56455;SDS011;42354;53.218;6.564;2022-09-20T16:28:57;8.88;;;1.60;;
56455;SDS011;42354;53.218;6.564;2022-09-20T16:36:51;6.15;;;1.23;;
56455;SDS011;42354;53.218;6.564;2022-09-20T16:39:18;7.45;;;1.42;;
56455;SDS011;42354;53.218;6.564;2022-09-20T16:41:46;6.85;;;1.73;;
56455;SDS011;42354;53.218;6.564;2022-09-20T16:44:13;6.25;;;1.40;;
56455;SDS011;42354;53.218;6.564;2022-09-20T16:46:39;5.53;;;1.15;;
56455;SDS011;42354;53.218;6.564;2022-09-20T16:49:05;7.13;;;1.42;;
56455;SDS011;42354;53.218;6.564;2022-09-20T16:51:36;11.43;;;1.50;;
56455;SDS011;42354;53.218;6.564;2022-09-20T16:54:04;10.48;;;1.58;;
56455;SDS011;42354;53.218;6.564;2022-09-20T16:56:37;7.30;;;1.42;;
56455;SDS011;42354;53.218;6.564;2022-09-20T16:59:04;6.72;;;1.00;;
56455;SDS011;42354;53.218;6.564;2022-09-20T17:01:32;6.75;;;1.00;;
56455;SDS011;42354;53.218;6.564;2022-09-20T17:03:58;16.98;;;1.60;;
56455;SDS011;42354;53.218;6.564;2022-09-20T17:06:24;7.35;;;1.13;;
56455;SDS011;42354;53.218;6.564;2022-09-20T17:08:51;11.95;;;1.20;;
56455;SDS011;42354;53.218;6.564;2022-09-20T17:11:18;6.68;;;0.95;;
56455;SDS011;42354;53.218;6.564;2022-09-20T17:13:49;4.93;;;0.80;;
56455;SDS011;42354;53.218;6.564;2022-09-20T17:16:17;9.57;;;1.27;;
56455;SDS011;42354;53.218;6.564;2022-09-20T17:18:50;10.80;;;0.93;;
56455;SDS011;42354;53.218;6.564;2022-09-20T17:21:26;8.57;;;2.33;;
56455;SDS011;42354;53.218;6.564;2022-09-20T17:23:54;8.45;;;1.92;;
56455;SDS011;42354;53.218;6.564;2022-09-20T17:28:47;7.95;;;1.20;;
56455;SDS011;42354;53.218;6.564;2022-09-20T17:31:19;9.35;;;1.65;;
56455;SDS011;42354;53.218;6.564;2022-09-20T17:33:46;9.18;;;1.23;;
56455;SDS011;42354;53.218;6.564;2022-09-20T17:36:13;9.95;;;2.13;;
56455;SDS011;42354;53.218;6.564;2022-09-20T17:38:40;7.43;;;1.42;;
56455;SDS011;42354;53.218;6.564;2022-09-20T17:41:07;4.95;;;1.00;;
56455;SDS011;42354;53.218;6.564;2022-09-20T17:43:37;5.28;;;1.27;;
56455;SDS011;42354;53.218;6.564;2022-09-20T17:46:13;6.40;;;1.30;;
56455;SDS011;42354;53.218;6.564;2022-09-20T17:48:42;4.35;;;1.30;;
56455;SDS011;42354;53.218;6.564;2022-09-20T17:51:17;5.22;;;1.77;;
56455;SDS011;42354;53.218;6.564;2022-09-20T17:53:45;8.32;;;1.95;;
56455;SDS011;42354;53.218;6.564;2022-09-20T17:56:11;8.70;;;2.00;;
56455;SDS011;42354;53.218;6.564;2022-09-20T17:58:38;7.75;;;1.05;;
56455;SDS011;42354;53.218;6.564;2022-09-20T18:01:12;7.18;;;1.52;;
56455;SDS011;42354;53.218;6.564;2022-09-20T18:03:40;7.30;;;1.85;;
56455;SDS011;42354;53.218;6.564;2022-09-20T18:06:17;11.85;;;1.60;;
56455;SDS011;42354;53.218;6.564;2022-09-20T18:08:47;12.77;;;2.30;;
56455;SDS011;42354;53.218;6.564;2022-09-20T18:11:14;5.70;;;1.40;;
56455;SDS011;42354;53.218;6.564;2022-09-20T18:13:41;6.70;;;1.40;;
56455;SDS011;42354;53.218;6.564;2022-09-20T18:16:08;8.23;;;2.08;;
56455;SDS011;42354;53.218;6.564;2022-09-20T18:18:35;11.07;;;2.33;;
56455;SDS011;42354;53.218;6.564;2022-09-20T18:21:07;23.23;;;4.80;;
56455;SDS011;42354;53.218;6.564;2022-09-20T18:23:37;10.43;;;2.00;;
56455;SDS011;42354;53.218;6.564;2022-09-20T18:26:07;6.55;;;1.52;;
56455;SDS011;42354;53.218;6.564;2022-09-20T18:28:45;9.75;;;1.40;;
56455;SDS011;42354;53.218;6.564;2022-09-20T18:31:11;11.25;;;1.20;;
56455;SDS011;42354;53.218;6.564;2022-09-20T18:33:36;12.00;;;1.98;;
56455;SDS011;42354;53.218;6.564;2022-09-20T18:36:03;18.35;;;5.75;;
56455;SDS011;42354;53.218;6.564;2022-09-20T18:38:29;14.30;;;5.50;;
56455;SDS011;42354;53.218;6.564;2022-09-20T18:40:57;17.85;;;3.45;;
56455;SDS011;42354;53.218;6.564;2022-09-20T18:43:28;8.88;;;1.52;;
56455;SDS011;42354;53.218;6.564;2022-09-20T18:45:55;6.93;;;1.67;;
56455;SDS011;42354;53.218;6.564;2022-09-20T18:48:22;7.65;;;1.90;;
56455;SDS011;42354;53.218;6.564;2022-09-20T18:53:26;9.60;;;3.30;;
56455;SDS011;42354;53.218;6.564;2022-09-20T18:55:59;9.95;;;2.85;;
56455;SDS011;42354;53.218;6.564;2022-09-20T18:58:30;10.15;;;2.10;;
56455;SDS011;42354;53.218;6.564;2022-09-20T19:01:14;10.30;;;2.83;;
56455;SDS011;42354;53.218;6.564;2022-09-20T19:12:16;11.65;;;3.30;;
56455;SDS011;42354;53.218;6.564;2022-09-20T19:14:53;12.63;;;2.63;;
56455;SDS011;42354;53.218;6.564;2022-09-20T19:26:23;12.35;;;3.00;;
56455;SDS011;42354;53.218;6.564;2022-09-20T19:28:51;17.65;;;4.53;;
56455;SDS011;42354;53.218;6.564;2022-09-20T19:31:28;10.65;;;4.20;;
56455;SDS011;42354;53.218;6.564;2022-09-20T19:33:57;12.80;;;2.63;;
56455;SDS011;42354;53.218;6.564;2022-09-20T19:36:24;15.20;;;3.08;;
56455;SDS011;42354;53.218;6.564;2022-09-20T19:47:20;11.05;;;3.65;;
56455;SDS011;42354;53.218;6.564;2022-09-20T19:50:53;11.20;;;2.88;;
56455;SDS011;42354;53.218;6.564;2022-09-20T19:52:57;13.20;;;2.40;;
56455;SDS011;42354;53.218;6.564;2022-09-20T19:55:26;18.50;;;4.00;;
56455;SDS011;42354;53.218;6.564;2022-09-20T19:57:52;12.73;;;2.92;;
56455;SDS011;42354;53.218;6.564;2022-09-20T20:00:18;12.32;;;3.78;;
56455;SDS011;42354;53.218;6.564;2022-09-20T20:02:45;12.02;;;3.90;;
56455;SDS011;42354;53.218;6.564;2022-09-20T20:05:20;19.65;;;10.20;;
56455;SDS011;42354;53.218;6.564;2022-09-20T20:08:06;14.77;;;4.32;;
56455;SDS011;42354;53.218;6.564;2022-09-20T20:10:45;16.08;;;7.75;;
56455;SDS011;42354;53.218;6.564;2022-09-20T20:13:33;17.83;;;8.18;;
56455;SDS011;42354;53.218;6.564;2022-09-20T20:16:37;17.98;;;7.60;;
56455;SDS011;42354;53.218;6.564;2022-09-20T20:19:15;27.50;;;9.50;;
56455;SDS011;42354;53.218;6.564;2022-09-20T20:21:53;20.35;;;8.75;;
56455;SDS011;42354;53.218;6.564;2022-09-20T20:24:35;18.08;;;6.95;;
56455;SDS011;42354;53.218;6.564;2022-09-20T20:27:06;16.15;;;6.57;;
56455;SDS011;42354;53.218;6.564;2022-09-20T20:29:31;22.67;;;7.10;;
56455;SDS011;42354;53.218;6.564;2022-09-20T20:31:57;21.60;;;6.93;;
56455;SDS011;42354;53.218;6.564;2022-09-20T20:34:22;17.10;;;7.05;;
56455;SDS011;42354;53.218;6.564;2022-09-20T20:36:48;15.75;;;6.57;;
56455;SDS011;42354;53.218;6.564;2022-09-20T20:39:13;15.27;;;5.97;;
56455;SDS011;42354;53.218;6.564;2022-09-20T20:41:39;16.05;;;5.47;;
56455;SDS011;42354;53.218;6.564;2022-09-20T20:44:05;19.70;;;5.80;;